createdAt,value
2022-09-12T00:00:08.741Z,17.03094482
2022-09-12T00:01:09.322Z,17.02087402
2022-09-12T00:02:09.746Z,17.02087402
2022-09-12T00:03:10.122Z,17.02087402
2022-09-12T00:04:11.559Z,17.03094482
2022-09-12T00:05:12.008Z,17.03094482
2022-09-12T00:06:12.545Z,17.03094482
2022-09-12T00:07:13.006Z,17.00073242
2022-09-12T00:08:13.552Z,16.99066162
2022-09-12T00:09:13.852Z,16.98059082
2022-09-12T00:10:14.297Z,16.99066162
2022-09-12T00:11:14.749Z,16.99066162
2022-09-12T00:12:15.205Z,16.99066162
2022-09-12T00:13:15.780Z,17.00073242
2022-09-12T00:14:17.030Z,17.05108643
2022-09-12T00:15:17.448Z,17.06115723
2022-09-12T00:16:18.016Z,17.06115723
2022-09-12T00:17:18.389Z,17.07122803
2022-09-12T00:18:18.909Z,17.10144043
2022-09-12T00:19:19.275Z,17.12158203
2022-09-12T00:20:19.694Z,17.12158203
2022-09-12T00:21:20.162Z,17.14172363
2022-09-12T00:22:20.585Z,17.10144043
2022-09-12T00:23:21.097Z,17.10144043
2022-09-12T00:24:22.026Z,17.09136963
2022-09-12T00:25:22.456Z,17.06115723
2022-09-12T00:26:22.952Z,17.05108643
2022-09-12T00:27:23.406Z,17.00073242
2022-09-12T00:28:23.865Z,16.96044922
2022-09-12T00:29:24.241Z,16.92016602
2022-09-12T00:30:24.661Z,16.91009521
2022-09-12T00:31:25.217Z,16.90002441
2022-09-12T00:32:25.607Z,16.90002441
2022-09-12T00:33:26.089Z,16.91009521
2022-09-12T00:34:27.046Z,16.86981201
2022-09-12T00:35:27.478Z,16.84967041
2022-09-12T00:36:58.526Z,16.86981201
2022-09-12T00:37:59.031Z,16.86981201
2022-09-12T00:38:59.506Z,16.87988281
2022-09-12T00:39:59.926Z,16.90002441
2022-09-12T00:41:00.308Z,16.86981201
2022-09-12T00:42:00.807Z,16.84967041
2022-09-12T00:43:01.833Z,16.84967041
2022-09-12T00:44:02.286Z,16.90002441
2022-09-12T00:45:03.319Z,16.90002441
2022-09-12T00:46:03.836Z,16.86981201
2022-09-12T00:47:04.301Z,16.84967041
2022-09-12T00:48:04.745Z,16.83959961
2022-09-12T00:49:05.326Z,16.83959961
2022-09-12T00:50:05.638Z,16.84967041
2022-09-12T00:51:07.059Z,16.83959961
2022-09-12T00:52:07.588Z,16.84967041
2022-09-12T00:53:08.104Z,16.80938721
2022-09-12T00:54:09.345Z,16.7791748
2022-09-12T00:55:09.791Z,16.7791748
2022-09-12T00:56:10.207Z,16.79931641
2022-09-12T00:57:10.653Z,16.7791748
2022-09-12T00:58:11.099Z,16.7288208
2022-09-12T00:59:11.960Z,16.71875
2022-09-12T01:00:12.303Z,16.6885376
2022-09-12T01:01:13.432Z,16.64825439
2022-09-12T01:02:13.858Z,16.668396
2022-09-12T01:03:14.306Z,16.64825439
2022-09-12T01:04:14.701Z,16.64825439
2022-09-12T01:05:15.122Z,16.64825439
2022-09-12T01:06:15.550Z,16.6583252
2022-09-12T01:07:16.002Z,16.6986084
2022-09-12T01:08:17.335Z,16.6885376
2022-09-12T01:09:17.826Z,16.668396
2022-09-12T01:10:18.208Z,16.668396
2022-09-12T01:11:18.626Z,16.6885376
2022-09-12T01:12:19.094Z,16.6885376
2022-09-12T01:13:19.553Z,16.668396
2022-09-12T01:14:20.871Z,16.668396
2022-09-12T01:15:21.276Z,16.6583252
2022-09-12T01:16:22.387Z,16.61804199
2022-09-12T01:17:22.784Z,16.58782959
2022-09-12T01:18:23.261Z,16.58782959
2022-09-12T01:19:23.806Z,16.58782959
2022-09-12T01:20:24.147Z,16.53747559
2022-09-12T01:21:25.316Z,16.53747559
2022-09-12T01:22:25.762Z,16.49719238
2022-09-12T01:23:26.235Z,16.46697998
2022-09-12T01:24:27.339Z,16.51733398
2022-09-12T01:25:57.979Z,16.53747559
2022-09-12T01:26:58.390Z,16.53747559
2022-09-12T01:27:58.874Z,16.51733398
2022-09-12T01:28:59.316Z,16.51733398
2022-09-12T01:29:59.831Z,16.56768799
2022-09-12T01:31:00.843Z,16.56768799
2022-09-12T01:32:01.274Z,16.56768799
2022-09-12T01:33:01.702Z,16.54754639
2022-09-12T01:34:02.196Z,16.58782959
2022-09-12T01:35:03.666Z,16.54754639
2022-09-12T01:36:04.014Z,16.54754639
2022-09-12T01:37:04.474Z,16.53747559
2022-09-12T01:38:04.925Z,16.53747559
2022-09-12T01:39:06.082Z,16.54754639
2022-09-12T01:40:06.632Z,16.53747559
2022-09-12T01:41:07.006Z,16.51733398
2022-09-12T01:42:07.436Z,16.49719238
2022-09-12T01:43:07.841Z,16.44683838
2022-09-12T01:44:08.312Z,16.41662598
2022-09-12T01:45:09.664Z,16.39648438
2022-09-12T01:46:10.064Z,16.39648438
2022-09-12T01:47:10.477Z,16.36627197
2022-09-12T01:48:10.912Z,16.39648438
2022-09-12T01:49:11.570Z,16.43676758
2022-09-12T01:50:12.061Z,16.41662598
2022-09-12T01:51:12.491Z,16.43676758
2022-09-12T01:52:12.870Z,16.40655518
2022-09-12T01:53:13.388Z,16.39648438
2022-09-12T01:54:14.861Z,16.36627197
2022-09-12T01:55:15.425Z,16.36627197
2022-09-12T01:56:15.784Z,16.31591797
2022-09-12T01:57:16.217Z,16.32598877
2022-09-12T01:58:17.330Z,16.29577637
2022-09-12T01:59:17.808Z,16.26556396
2022-09-12T02:00:18.211Z,16.28570557
2022-09-12T02:01:18.665Z,16.26556396
2022-09-12T02:02:19.096Z,16.25549316
2022-09-12T02:03:19.523Z,16.22528076
2022-09-12T02:04:20.878Z,16.24542236
2022-09-12T02:05:21.385Z,16.22528076
2022-09-12T02:06:21.838Z,16.25549316
2022-09-12T02:07:22.305Z,16.25549316
2022-09-12T02:08:22.730Z,16.26556396
2022-09-12T02:09:23.307Z,16.26556396
2022-09-12T02:10:23.781Z,16.24542236
2022-09-12T02:11:24.218Z,16.21520996
2022-09-12T02:12:24.632Z,16.18499756
2022-09-12T02:13:25.044Z,16.21520996
2022-09-12T02:14:26.407Z,16.21520996
2022-09-12T02:15:57.229Z,16.22528076
2022-09-12T02:16:57.646Z,16.29577637
2022-09-12T02:17:58.095Z,16.28570557
2022-09-12T02:18:58.512Z,16.26556396
2022-09-12T02:19:59.015Z,16.26556396
2022-09-12T02:20:59.505Z,16.28570557
2022-09-12T02:22:00.863Z,16.29577637
2022-09-12T02:23:01.316Z,16.29577637
2022-09-12T02:24:01.716Z,16.28570557
2022-09-12T02:25:03.102Z,16.32598877
2022-09-12T02:26:03.541Z,16.32598877
2022-09-12T02:27:04.011Z,16.31591797
2022-09-12T02:28:04.440Z,16.29577637
2022-09-12T02:29:04.892Z,16.26556396
2022-09-12T02:30:05.388Z,16.28570557
2022-09-12T02:31:06.026Z,16.25549316
2022-09-12T02:32:06.398Z,16.26556396
2022-09-12T02:33:06.822Z,16.24542236
2022-09-12T02:34:07.827Z,16.26556396
2022-09-12T02:35:08.905Z,16.24542236
2022-09-12T02:36:09.452Z,16.26556396
2022-09-12T02:37:09.828Z,16.22528076
2022-09-12T02:38:10.282Z,16.22528076
2022-09-12T02:39:10.780Z,16.18499756
2022-09-12T02:40:11.620Z,16.17492676
2022-09-12T02:41:12.292Z,16.18499756
2022-09-12T02:42:12.610Z,16.21520996
2022-09-12T02:43:13.029Z,16.21520996
2022-09-12T02:44:13.443Z,16.21520996
2022-09-12T02:45:14.494Z,16.14471436
2022-09-12T02:46:15.040Z,16.13464355
2022-09-12T02:47:15.443Z,16.06414795
2022-09-12T02:48:15.900Z,16.06414795
2022-09-12T02:49:16.391Z,16.01379395
2022-09-12T02:50:16.796Z,16.07421875
2022-09-12T02:51:20.381Z,16.04400635
2022-09-12T02:52:18.562Z,15.98358154
2022-09-12T02:53:19.016Z,15.92315674
2022-09-12T02:54:19.459Z,15.88287354
2022-09-12T02:55:19.906Z,15.91308594
2022-09-12T02:56:20.428Z,15.92315674
2022-09-12T02:57:22.842Z,15.93322754
2022-09-12T02:58:21.361Z,15.92315674
2022-09-12T02:59:21.778Z,15.92315674
2022-09-12T03:00:22.208Z,15.96343994
2022-09-12T03:01:22.747Z,15.95336914
2022-09-12T03:02:23.162Z,15.96343994
2022-09-12T03:03:23.641Z,15.95336914
2022-09-12T03:04:24.044Z,15.95336914
2022-09-12T03:05:25.028Z,15.95336914
2022-09-12T03:06:25.531Z,15.89294434
2022-09-12T03:07:56.504Z,15.91308594
2022-09-12T03:08:56.923Z,15.92315674
2022-09-12T03:09:57.385Z,15.96343994
2022-09-12T03:10:58.356Z,15.98358154
2022-09-12T03:11:58.866Z,15.98358154
2022-09-12T03:12:59.264Z,15.95336914
2022-09-12T03:13:59.725Z,15.93322754
2022-09-12T03:15:00.838Z,15.92315674
2022-09-12T03:16:01.248Z,15.92315674
2022-09-12T03:17:01.774Z,15.91308594
2022-09-12T03:18:02.195Z,15.89294434
2022-09-12T03:19:02.633Z,15.91308594
2022-09-12T03:20:03.076Z,15.93322754
2022-09-12T03:21:03.501Z,15.95336914
2022-09-12T03:22:03.976Z,15.95336914
2022-09-12T03:23:05.058Z,15.93322754
2022-09-12T03:24:05.485Z,15.92315674
2022-09-12T03:25:06.831Z,15.88287354
2022-09-12T03:26:07.282Z,15.85266113
2022-09-12T03:27:07.776Z,15.86273193
2022-09-12T03:28:08.206Z,15.84259033
2022-09-12T03:29:08.642Z,15.85266113
2022-09-12T03:30:09.115Z,15.86273193
2022-09-12T03:31:09.537Z,15.85266113
2022-09-12T03:32:10.086Z,15.81237793
2022-09-12T03:33:11.690Z,15.81237793
2022-09-12T03:34:12.165Z,15.84259033
2022-09-12T03:35:13.362Z,15.86273193
2022-09-12T03:36:13.814Z,15.86273193
2022-09-12T03:37:14.227Z,15.88287354
2022-09-12T03:38:14.774Z,15.88287354
2022-09-12T03:39:15.274Z,15.86273193
2022-09-12T03:40:16.409Z,15.86273193
2022-09-12T03:41:16.786Z,15.85266113
2022-09-12T03:42:17.217Z,15.85266113
2022-09-12T03:43:17.739Z,15.85266113
2022-09-12T03:44:18.215Z,15.80230713
2022-09-12T03:45:18.723Z,15.78216553
2022-09-12T03:46:19.186Z,15.76202393
2022-09-12T03:47:19.645Z,15.76202393
2022-09-12T03:48:20.037Z,15.76202393
2022-09-12T03:49:20.441Z,15.77209473
2022-09-12T03:50:20.870Z,15.76202393
2022-09-12T03:51:21.861Z,15.71166992
2022-09-12T03:52:22.341Z,15.70159912
2022-09-12T03:53:22.832Z,15.67138672
2022-09-12T03:54:23.345Z,15.73181152
2022-09-12T03:55:24.345Z,15.74188232
2022-09-12T03:56:24.823Z,15.74188232
2022-09-12T03:57:55.849Z,15.74188232
2022-09-12T03:58:56.307Z,15.68145752
2022-09-12T03:59:56.752Z,15.67138672
2022-09-12T04:00:57.250Z,15.67138672
2022-09-12T04:01:57.638Z,15.62103271
2022-09-12T04:02:58.906Z,15.60089111
2022-09-12T04:03:59.339Z,15.59082031
2022-09-12T04:04:59.861Z,15.59082031
2022-09-12T04:06:00.282Z,15.56060791
2022-09-12T04:07:00.794Z,15.55053711
2022-09-12T04:08:02.146Z,15.56060791
2022-09-12T04:09:02.437Z,15.53039551
2022-09-12T04:10:03.685Z,15.58074951
2022-09-12T04:11:03.282Z,15.59082031
2022-09-12T04:12:03.751Z,15.58074951
2022-09-12T04:13:04.206Z,15.62103271
2022-09-12T04:14:04.625Z,15.62103271
2022-09-12T04:15:05.828Z,15.59082031
2022-09-12T04:16:06.262Z,15.58074951
2022-09-12T04:17:06.720Z,15.58074951
2022-09-12T04:18:07.237Z,15.55053711
2022-09-12T04:19:07.943Z,15.55053711
2022-09-12T04:20:08.393Z,15.53039551
2022-09-12T04:21:08.815Z,15.55053711
2022-09-12T04:22:09.220Z,15.53039551
2022-09-12T04:23:10.350Z,15.53039551
2022-09-12T04:24:10.808Z,15.53039551
2022-09-12T04:25:11.579Z,15.53039551
2022-09-12T04:26:12.625Z,15.55053711
2022-09-12T04:27:13.056Z,15.58074951
2022-09-12T04:28:13.544Z,15.60089111
2022-09-12T04:29:13.947Z,15.62103271
2022-09-12T04:30:14.369Z,15.60089111
2022-09-12T04:31:15.348Z,15.59082031
2022-09-12T04:32:15.773Z,15.56060791
2022-09-12T04:33:16.329Z,15.55053711
2022-09-12T04:34:16.639Z,15.56060791
2022-09-12T04:35:17.855Z,15.55053711
2022-09-12T04:36:18.263Z,15.51025391
2022-09-12T04:37:18.690Z,15.4800415
2022-09-12T04:38:19.175Z,15.4800415
2022-09-12T04:39:19.560Z,15.4901123
2022-09-12T04:40:20.879Z,15.52032471
2022-09-12T04:41:21.305Z,15.51025391
2022-09-12T04:42:21.713Z,15.52032471
2022-09-12T04:43:22.190Z,15.52032471
2022-09-12T04:44:22.609Z,15.51025391
2022-09-12T04:45:23.859Z,15.4901123
2022-09-12T04:46:24.306Z,15.4095459
2022-09-12T04:47:55.158Z,15.4296875
2022-09-12T04:48:57.068Z,15.4296875
2022-09-12T04:49:56.051Z,15.4397583
2022-09-12T04:50:56.491Z,15.4598999
2022-09-12T04:51:56.937Z,15.4598999
2022-09-12T04:52:57.372Z,15.4800415
2022-09-12T04:53:57.818Z,15.4800415
2022-09-12T04:54:58.226Z,15.51025391
2022-09-12T04:55:59.564Z,15.51025391
2022-09-12T04:57:00.027Z,15.51025391
2022-09-12T04:58:00.427Z,15.52032471
2022-09-12T04:59:00.901Z,15.52032471
2022-09-12T05:00:06.497Z,15.51025391
2022-09-12T05:01:01.848Z,15.51025391
2022-09-12T05:02:02.448Z,15.52032471
2022-09-12T05:03:03.564Z,15.56060791
2022-09-12T05:04:03.955Z,15.58074951
2022-09-12T05:05:04.318Z,15.58074951
2022-09-12T05:06:05.570Z,15.59082031
2022-09-12T05:07:06.008Z,15.59082031
2022-09-12T05:08:06.491Z,15.59082031
2022-09-12T05:09:07.100Z,15.59082031
2022-09-12T05:10:07.432Z,15.58074951
2022-09-12T05:11:07.858Z,15.58074951
2022-09-12T05:12:08.348Z,15.62103271
2022-09-12T05:13:08.742Z,15.59082031
2022-09-12T05:14:09.216Z,15.59082031
2022-09-12T05:15:09.615Z,15.59082031
2022-09-12T05:16:10.627Z,15.59082031
2022-09-12T05:17:10.990Z,15.58074951
2022-09-12T05:18:11.680Z,15.58074951
2022-09-12T05:19:12.143Z,15.58074951
2022-09-12T05:20:12.578Z,15.59082031
2022-09-12T05:21:13.045Z,15.62103271
2022-09-12T05:22:13.504Z,15.66131592
2022-09-12T05:23:13.954Z,15.67138672
2022-09-12T05:24:14.448Z,15.68145752
2022-09-12T05:25:14.851Z,15.68145752
2022-09-12T05:26:16.043Z,15.70159912
2022-09-12T05:27:16.483Z,15.68145752
2022-09-12T05:28:16.931Z,15.64117432
2022-09-12T05:29:17.418Z,15.66131592
2022-09-12T05:30:17.849Z,15.66131592
2022-09-12T05:31:18.307Z,15.68145752
2022-09-12T05:32:19.359Z,15.71166992
2022-09-12T05:33:23.241Z,15.74188232
2022-09-12T05:34:20.270Z,15.74188232
2022-09-12T05:35:20.738Z,15.76202393
2022-09-12T05:36:21.178Z,15.74188232
2022-09-12T05:37:22.367Z,15.73181152
2022-09-12T05:38:22.790Z,15.73181152
2022-09-12T05:39:23.281Z,15.73181152
2022-09-12T05:40:24.163Z,15.71166992
2022-09-12T05:41:54.859Z,15.73181152
2022-09-12T05:42:55.299Z,15.76202393
2022-09-12T05:43:55.790Z,15.77209473
2022-09-12T05:44:56.316Z,15.77209473
2022-09-12T05:45:57.372Z,15.78216553
2022-09-12T05:46:57.809Z,15.77209473
2022-09-12T05:47:58.273Z,15.78216553
2022-09-12T05:48:58.738Z,15.73181152
2022-09-12T05:49:59.227Z,15.71166992
2022-09-12T05:50:59.636Z,15.74188232
2022-09-12T05:52:00.138Z,15.73181152
2022-09-12T05:53:00.596Z,15.77209473
2022-09-12T05:54:01.566Z,15.81237793
2022-09-12T05:55:02.022Z,15.84259033
2022-09-12T05:56:03.371Z,15.76202393
2022-09-12T05:57:03.853Z,15.73181152
2022-09-12T05:58:04.299Z,15.74188232
2022-09-12T05:59:04.778Z,15.74188232
2022-09-12T06:00:05.267Z,15.73181152
2022-09-12T06:01:05.696Z,15.74188232
2022-09-12T06:02:06.180Z,15.76202393
2022-09-12T06:03:07.572Z,15.80230713
2022-09-12T06:04:08.006Z,15.80230713
2022-09-12T06:05:08.445Z,15.84259033
2022-09-12T06:06:09.882Z,15.88287354
2022-09-12T06:07:10.370Z,15.89294434
2022-09-12T06:08:10.840Z,15.95336914
2022-09-12T06:09:41.476Z,15.99365234
2022-09-12T06:11:12.171Z,16.01379395
2022-09-12T06:12:12.582Z,16.06414795
2022-09-12T06:13:13.027Z,16.08428955
2022-09-12T06:14:13.483Z,16.08428955
2022-09-12T06:15:13.996Z,16.10443115
2022-09-12T06:16:14.566Z,16.11450195
2022-09-12T06:17:15.888Z,16.11450195
2022-09-12T06:18:16.370Z,16.08428955
2022-09-12T06:19:16.811Z,16.08428955
2022-09-12T06:20:17.224Z,16.13464355
2022-09-12T06:21:18.390Z,16.16485596
2022-09-12T06:22:18.823Z,16.18499756
2022-09-12T06:23:19.292Z,16.24542236
2022-09-12T06:24:19.746Z,16.25549316
2022-09-12T06:25:21.112Z,16.26556396
2022-09-12T06:26:22.376Z,16.28570557
2022-09-12T06:27:22.790Z,16.28570557
2022-09-12T06:28:53.959Z,16.28570557
2022-09-12T06:29:54.370Z,16.28570557
2022-09-12T06:30:54.917Z,16.29577637
2022-09-12T06:31:55.345Z,16.32598877
2022-09-12T06:32:56.364Z,16.33605957
2022-09-12T06:33:56.866Z,16.35620117
2022-09-12T06:34:57.326Z,16.36627197
2022-09-12T06:35:58.399Z,16.39648438
2022-09-12T06:36:58.875Z,16.40655518
2022-09-12T06:37:59.276Z,16.41662598
2022-09-12T06:38:59.657Z,16.47705078
2022-09-12T06:40:00.144Z,16.50726318
2022-09-12T06:41:00.562Z,16.53747559
2022-09-12T06:42:01.000Z,16.53747559
2022-09-12T06:43:01.491Z,16.54754639
2022-09-12T06:44:01.960Z,16.53747559
2022-09-12T06:45:02.416Z,16.54754639
2022-09-12T06:46:03.416Z,16.56768799
2022-09-12T06:47:03.846Z,16.56768799
2022-09-12T06:48:04.233Z,16.56768799
2022-09-12T06:49:04.715Z,16.56768799
2022-09-12T06:50:05.158Z,16.59790039
2022-09-12T06:51:06.398Z,16.58782959
2022-09-12T06:52:06.944Z,16.62811279
2022-09-12T06:53:07.305Z,16.64825439
2022-09-12T06:54:07.756Z,16.668396
2022-09-12T06:55:08.186Z,16.668396
2022-09-12T06:56:09.352Z,16.64825439
2022-09-12T06:57:09.902Z,16.64825439
2022-09-12T06:58:10.211Z,16.64825439
2022-09-12T06:59:10.656Z,16.6583252
2022-09-12T07:00:11.864Z,16.668396
2022-09-12T07:01:12.373Z,16.6986084
2022-09-12T07:02:12.781Z,16.769104
2022-09-12T07:03:13.150Z,16.80938721
2022-09-12T07:04:13.606Z,16.86981201
2022-09-12T07:05:14.043Z,16.92016602
2022-09-12T07:06:14.486Z,16.98059082
2022-09-12T07:07:14.921Z,16.99066162
2022-09-12T07:08:15.338Z,17.00073242
2022-09-12T07:09:15.762Z,17.03094482
2022-09-12T07:10:21.595Z,17.05108643
2022-09-12T07:11:16.707Z,17.05108643
2022-09-12T07:12:17.170Z,17.05108643
2022-09-12T07:13:17.569Z,17.03094482
2022-09-12T07:14:17.994Z,17.03094482
2022-09-12T07:15:18.446Z,17.02087402
2022-09-12T07:16:20.244Z,17.03094482
2022-09-12T07:17:20.311Z,17.03094482
2022-09-12T07:18:20.742Z,17.03094482
2022-09-12T07:19:21.180Z,17.05108643
2022-09-12T07:20:21.625Z,17.05108643
2022-09-12T07:21:22.049Z,17.07122803
2022-09-12T07:22:53.177Z,17.09136963
2022-09-12T07:23:54.375Z,17.10144043
2022-09-12T07:24:54.803Z,17.12158203
2022-09-12T07:25:55.261Z,17.14172363
2022-09-12T07:26:56.649Z,17.17193604
2022-09-12T07:27:57.253Z,17.18200684
2022-09-12T07:29:08.299Z,17.18200684
2022-09-12T07:29:57.997Z,17.20214844
2022-09-12T07:30:58.464Z,17.17193604
2022-09-12T07:31:58.976Z,17.17193604
2022-09-12T07:33:00.445Z,17.21221924
2022-09-12T07:34:00.872Z,17.21221924
2022-09-12T07:35:02.099Z,17.18200684
2022-09-12T07:36:03.381Z,17.21221924
2022-09-12T07:37:03.889Z,17.21221924
2022-09-12T07:38:05.133Z,17.20214844
2022-09-12T07:39:05.491Z,17.22229004
2022-09-12T07:40:05.946Z,17.24243164
2022-09-12T07:41:06.313Z,17.22229004
2022-09-12T07:42:06.797Z,17.24243164
2022-09-12T07:43:07.417Z,17.24243164
2022-09-12T07:44:07.806Z,17.27264404
2022-09-12T07:45:08.210Z,17.30285645
2022-09-12T07:46:08.758Z,17.32299805
2022-09-12T07:47:09.672Z,17.33306885
2022-09-12T07:48:10.164Z,17.36328125
2022-09-12T07:49:10.586Z,17.36328125
2022-09-12T07:50:11.018Z,17.39349365
2022-09-12T07:51:11.686Z,17.39349365
2022-09-12T07:52:12.203Z,17.43377686
2022-09-12T07:53:13.761Z,17.45391846
2022-09-12T07:54:14.062Z,17.46398926
2022-09-12T07:55:14.527Z,17.49420166
2022-09-12T07:56:15.001Z,17.51434326
2022-09-12T07:57:16.110Z,17.53448486
2022-09-12T07:58:16.619Z,17.54455566
2022-09-12T07:59:35.292Z,17.57476807
2022-09-12T08:00:17.418Z,17.58483887
2022-09-12T08:01:17.930Z,17.61505127
2022-09-12T08:02:18.386Z,17.61505127
2022-09-12T08:03:18.794Z,17.61505127
2022-09-12T08:04:19.161Z,17.64526367
2022-09-12T08:05:19.568Z,17.64526367
2022-09-12T08:06:20.078Z,17.64526367
2022-09-12T08:07:21.110Z,17.67547607
2022-09-12T08:08:21.573Z,17.70568848
2022-09-12T08:09:52.549Z,17.70568848
2022-09-12T08:10:52.971Z,17.70568848
2022-09-12T08:11:53.435Z,17.70568848
2022-09-12T08:12:54.909Z,17.70568848
2022-09-12T08:13:55.987Z,17.70568848
2022-09-12T08:14:55.767Z,17.73590088
2022-09-12T08:15:56.233Z,17.76611328
2022-09-12T08:16:56.689Z,17.78625488
2022-09-12T08:17:57.113Z,17.82653809
2022-09-12T08:18:57.561Z,17.85675049
2022-09-12T08:19:57.955Z,17.88696289
2022-09-12T08:20:59.080Z,17.91717529
2022-09-12T08:21:59.551Z,17.9473877
2022-09-12T08:22:59.997Z,17.9876709
2022-09-12T08:24:00.479Z,18.0380249
2022-09-12T08:25:00.851Z,18.08837891
2022-09-12T08:26:05.779Z,18.12866211
2022-09-12T08:27:03.398Z,18.15887451
2022-09-12T08:28:03.856Z,18.19915771
2022-09-12T08:29:04.282Z,18.20922852
2022-09-12T08:30:04.683Z,18.25958252
2022-09-12T08:31:05.241Z,18.28979492
2022-09-12T08:32:05.676Z,18.30993652
2022-09-12T08:33:06.173Z,18.34014893
2022-09-12T08:34:06.688Z,18.36029053
2022-09-12T08:35:07.147Z,18.38043213
2022-09-12T08:36:07.571Z,18.42071533
2022-09-12T08:37:08.637Z,18.46099854
2022-09-12T08:38:09.106Z,18.47106934
2022-09-12T08:39:10.104Z,18.49121094
2022-09-12T08:40:10.599Z,18.51135254
2022-09-12T08:41:11.001Z,18.53149414
2022-09-12T08:43:12.181Z,18.54156494
2022-09-12T08:44:12.749Z,18.57177734
2022-09-12T08:45:13.025Z,18.57177734
2022-09-12T08:46:13.563Z,18.60198975
2022-09-12T08:47:14.616Z,18.62213135
2022-09-12T08:48:15.128Z,18.64227295
2022-09-12T08:49:15.583Z,18.66241455
2022-09-12T08:50:16.884Z,18.68255615
2022-09-12T08:51:17.435Z,18.69262695
2022-09-12T08:52:17.903Z,18.69262695
2022-09-12T08:53:18.333Z,18.71276855
2022-09-12T08:54:18.849Z,18.74298096
2022-09-12T08:55:19.182Z,18.75305176
2022-09-12T08:56:19.652Z,18.76312256
2022-09-12T08:57:21.096Z,18.79333496
2022-09-12T08:58:52.037Z,18.82354736
2022-09-12T08:59:52.471Z,18.82354736
2022-09-12T09:00:52.934Z,18.83361816
2022-09-12T09:01:53.478Z,18.83361816
2022-09-12T09:02:53.896Z,18.82354736
2022-09-12T09:03:54.887Z,18.82354736
2022-09-12T09:04:55.405Z,18.83361816
2022-09-12T09:05:55.704Z,18.84368896
2022-09-12T09:06:56.903Z,18.82354736
2022-09-12T09:07:57.335Z,18.83361816
2022-09-12T09:08:57.782Z,18.83361816
2022-09-12T09:09:58.236Z,18.84368896
2022-09-12T09:10:58.631Z,18.86383057
2022-09-12T09:11:59.124Z,18.87390137
2022-09-12T09:12:59.633Z,18.87390137
2022-09-12T09:14:04.447Z,18.90411377
2022-09-12T09:15:00.597Z,18.91418457
2022-09-12T09:16:00.982Z,18.91418457
2022-09-12T09:17:01.893Z,18.94439697
2022-09-12T09:18:02.341Z,18.94439697
2022-09-12T09:19:02.803Z,18.96453857
2022-09-12T09:20:03.230Z,18.96453857
2022-09-12T09:21:03.623Z,18.99475098
2022-09-12T09:22:04.070Z,19.01489258
2022-09-12T09:23:04.513Z,18.99475098
2022-09-12T09:24:04.898Z,18.97460938
2022-09-12T09:25:06.190Z,18.97460938
2022-09-12T09:26:06.496Z,19.01489258
2022-09-12T09:27:23.610Z,18.99475098
2022-09-12T09:28:08.378Z,19.01489258
2022-09-12T09:29:08.814Z,19.01489258
2022-09-12T09:30:09.265Z,18.99475098
2022-09-12T09:31:09.697Z,19.01489258
2022-09-12T09:32:10.092Z,19.01489258
2022-09-12T09:33:10.514Z,18.99475098
2022-09-12T09:34:11.604Z,19.01489258
2022-09-12T09:35:12.082Z,19.01489258
2022-09-12T09:36:12.524Z,19.01489258
2022-09-12T09:37:13.904Z,19.01489258
2022-09-12T09:38:14.347Z,19.04510498
2022-09-12T09:39:14.766Z,19.04510498
2022-09-12T09:40:15.355Z,19.05517578
2022-09-12T09:41:15.693Z,19.11560059
2022-09-12T09:42:16.123Z,19.14581299
2022-09-12T09:43:16.543Z,19.19616699
2022-09-12T09:44:16.956Z,19.20623779
2022-09-12T09:45:17.374Z,19.2364502
2022-09-12T09:46:17.909Z,19.2666626
2022-09-12T09:47:18.900Z,19.296875
2022-09-12T09:48:19.352Z,19.3069458
2022-09-12T09:49:19.755Z,19.3371582
2022-09-12T09:50:20.194Z,19.347229
2022-09-12T09:51:21.061Z,19.39758301
2022-09-12T09:52:51.730Z,19.41772461
2022-09-12T09:53:52.223Z,19.42779541
2022-09-12T09:54:52.644Z,19.44793701
2022-09-12T09:55:53.060Z,19.45800781
2022-09-12T09:56:53.524Z,19.46807861
2022-09-12T09:57:54.605Z,19.48822021
2022-09-12T09:58:55.037Z,19.49829102
2022-09-12T09:59:55.511Z,19.49829102
2022-09-12T10:00:56.862Z,19.49829102
2022-09-12T10:01:57.211Z,19.51843262
2022-09-12T10:02:57.816Z,19.51843262
2022-09-12T10:03:58.921Z,19.51843262
2022-09-12T10:04:59.352Z,19.52850342
2022-09-12T10:05:59.896Z,19.54864502
2022-09-12T10:07:00.380Z,19.57885742
2022-09-12T10:08:01.615Z,19.59899902
2022-09-12T10:09:02.064Z,19.59899902
2022-09-12T10:10:02.479Z,19.60906982
2022-09-12T10:11:02.984Z,19.60906982
2022-09-12T10:12:03.511Z,19.60906982
2022-09-12T10:13:03.956Z,19.60906982
2022-09-12T10:14:04.402Z,19.59899902
2022-09-12T10:15:04.820Z,19.59899902
2022-09-12T10:16:05.338Z,19.59899902
2022-09-12T10:17:06.421Z,19.57885742
2022-09-12T10:18:07.429Z,19.59899902
2022-09-12T10:19:07.995Z,19.60906982
2022-09-12T10:20:21.094Z,19.61914063
2022-09-12T10:21:09.493Z,19.61914063
2022-09-12T10:22:09.931Z,19.61914063
2022-09-12T10:23:10.402Z,19.63928223
2022-09-12T10:24:10.820Z,19.61914063
2022-09-12T10:25:11.336Z,19.63928223
2022-09-12T10:26:12.133Z,19.63928223
2022-09-12T10:27:12.643Z,19.64935303
2022-09-12T10:28:13.637Z,19.66949463
2022-09-12T10:29:14.040Z,19.66949463
2022-09-12T10:30:14.567Z,19.66949463
2022-09-12T10:31:15.069Z,19.66949463
2022-09-12T10:32:15.468Z,19.67956543
2022-09-12T10:33:15.938Z,19.67956543
2022-09-12T10:34:16.332Z,19.67956543
2022-09-12T10:35:16.743Z,19.70977783
2022-09-12T10:36:17.276Z,19.71984863
2022-09-12T10:37:17.683Z,19.71984863
